Time;durP1;ratioP1;P1;durP2;ratioP2;P2;SDS_P1;SDS_P2;PMS_P1;PMS_P2;Temp;Humidity;BMP_temperature;BMP_pressure;BME280_temperature;BME280_humidity;BME280_pressure;Samples;Min_cycle;Max_cycle;Signal;HPM_P1;HPM_P2
2021/01/10 00:02:09;;;;;;;1.00;1.00;;;3.10;99.90;;;;;;4828714;29;20201;-79
2021/01/10 00:04:35;;;;;;;5.93;1.10;;;3.00;99.90;;;;;;4835602;29;20234;-80
2021/01/10 00:07:01;;;;;;;1.03;0.73;;;3.10;99.90;;;;;;4814945;29;20730;-80
2021/01/10 00:09:27;;;;;;;0.23;0.23;;;3.10;99.90;;;;;;4849362;29;20275;-80
2021/01/10 00:11:53;;;;;;;0.40;0.40;;;3.10;99.90;;;;;;4846432;29;20259;-79
2021/01/10 00:14:18;;;;;;;1.70;1.37;;;3.10;99.90;;;;;;4799031;29;20516;-79
2021/01/10 00:16:44;;;;;;;3.13;0.53;;;3.10;99.90;;;;;;4844579;29;20220;-80
2021/01/10 00:19:10;;;;;;;0.20;0.20;;;3.20;99.90;;;;;;4848038;29;21318;-80
2021/01/10 00:21:39;;;;;;;0.30;0.30;;;3.20;99.90;;;;;;4837634;29;20635;-80
2021/01/10 00:24:06;;;;;;;0.30;0.30;;;3.30;99.90;;;;;;4826271;29;20287;-79
2021/01/10 00:26:36;;;;;;;0.27;0.27;;;3.30;99.90;;;;;;4852215;29;20248;-79
2021/01/10 00:29:05;;;;;;;1.63;0.67;;;3.40;99.90;;;;;;4848062;29;20232;-79
2021/01/10 00:31:32;;;;;;;0.70;0.70;;;3.40;99.90;;;;;;4812718;29;20232;-79
2021/01/10 00:33:58;;;;;;;0.30;0.30;;;3.50;99.90;;;;;;4849753;29;20314;-79
2021/01/10 00:36:32;;;;;;;1.03;0.93;;;3.50;99.90;;;;;;4855873;29;20284;-79
2021/01/10 00:38:58;;;;;;;0.70;0.23;;;3.40;99.90;;;;;;4850760;29;20231;-81
2021/01/10 00:41:24;;;;;;;0.47;0.47;;;3.40;99.90;;;;;;4819140;29;20713;-80
2021/01/10 00:43:49;;;;;;;0.57;0.57;;;3.40;99.90;;;;;;4836656;29;20580;-80
2021/01/10 00:46:15;;;;;;;0.30;0.30;;;3.30;99.90;;;;;;4823428;29;20233;-80
2021/01/10 00:48:41;;;;;;;0.40;0.40;;;3.20;99.90;;;;;;4850699;29;20308;-79
2021/01/10 00:51:15;;;;;;;0.30;0.30;;;3.20;99.90;;;;;;4848277;29;21112;-81
2021/01/10 00:53:41;;;;;;;0.70;0.70;;;3.20;99.90;;;;;;4812810;29;20210;-79
2021/01/10 00:56:08;;;;;;;0.80;0.80;;;3.20;99.90;;;;;;4829433;29;20205;-80
2021/01/10 00:58:34;;;;;;;0.63;0.63;;;3.20;99.90;;;;;;4829703;29;20639;-79
2021/01/10 01:01:00;;;;;;;0.27;0.27;;;3.20;99.90;;;;;;4851837;29;20698;-79
2021/01/10 01:03:26;;;;;;;4.33;0.37;;;3.20;99.90;;;;;;4828241;29;20366;-79
2021/01/10 01:05:52;;;;;;;0.63;0.63;;;3.00;99.90;;;;;;4814249;29;21462;-79
2021/01/10 01:08:18;;;;;;;1.13;1.13;;;2.80;99.90;;;;;;4840314;29;20192;-79
2021/01/10 01:10:44;;;;;;;0.30;0.30;;;2.60;99.90;;;;;;4818559;29;20229;-79
2021/01/10 01:13:10;;;;;;;0.30;0.30;;;2.40;99.90;;;;;;4844183;29;20227;-79
2021/01/10 01:15:36;;;;;;;0.30;0.30;;;2.30;99.90;;;;;;4849012;29;20274;-79
2021/01/10 01:18:02;;;;;;;0.70;0.70;;;2.30;99.90;;;;;;4834015;29;20256;-80
2021/01/10 01:20:28;;;;;;;2.80;1.00;;;2.30;99.90;;;;;;4832375;29;20196;-79
2021/01/10 01:22:53;;;;;;;0.43;0.43;;;2.20;99.90;;;;;;4830282;29;20703;-81
2021/01/10 01:25:19;;;;;;;0.30;0.30;;;2.10;99.90;;;;;;4814748;29;20271;-79
2021/01/10 01:27:45;;;;;;;0.30;0.30;;;2.20;99.90;;;;;;4835690;29;20228;-79
2021/01/10 01:30:11;;;;;;;2.03;0.50;;;2.10;99.90;;;;;;4818766;29;20248;-80
2021/01/10 01:32:37;;;;;;;0.60;0.60;;;2.00;99.90;;;;;;4829039;29;20684;-79
2021/01/10 01:35:04;;;;;;;0.43;0.43;;;2.00;99.90;;;;;;4845088;29;20220;-79
2021/01/10 01:37:30;;;;;;;0.67;0.63;;;2.00;99.90;;;;;;4829325;29;20217;-79
2021/01/10 01:39:56;;;;;;;2.93;0.70;;;2.00;99.90;;;;;;4826552;29;20259;-79
2021/01/10 01:42:21;;;;;;;0.80;0.80;;;2.10;99.90;;;;;;4831305;29;20828;-79
2021/01/10 01:44:47;;;;;;;0.60;0.60;;;2.10;99.90;;;;;;4820664;29;21288;-79
2021/01/10 01:47:18;;;;;;;1.63;0.77;;;2.10;99.90;;;;;;4810869;29;21087;-79
2021/01/10 01:49:44;;;;;;;0.90;0.90;;;2.00;99.90;;;;;;4849959;29;20236;-79
2021/01/10 01:52:11;;;;;;;0.93;0.93;;;2.10;99.90;;;;;;4828553;29;20698;-79
2021/01/10 01:54:37;;;;;;;0.83;0.83;;;2.10;99.90;;;;;;4840968;29;20220;-79
2021/01/10 01:57:02;;;;;;;0.77;0.67;;;2.00;99.90;;;;;;4818724;29;20312;-80
2021/01/10 01:59:28;;;;;;;0.97;0.97;;;2.00;99.90;;;;;;4817828;29;20212;-80
2021/01/10 02:01:54;;;;;;;0.60;0.60;;;2.00;99.90;;;;;;4811532;29;20263;-79
2021/01/10 02:04:32;;;;;;;1.00;0.90;;;1.90;99.90;;;;;;4849130;29;20231;-79
2021/01/10 02:07:19;;;;;;;4.10;2.53;;;1.90;99.90;;;;;;4851635;29;20772;-79
2021/01/10 02:09:59;;;;;;;0.43;0.43;;;2.00;99.90;;;;;;4850808;29;20785;-79
2021/01/10 02:12:29;;;;;;;1.33;0.80;;;2.00;99.90;;;;;;4846942;29;20590;-80
2021/01/10 02:14:59;;;;;;;11.03;1.30;;;2.00;99.90;;;;;;4834008;29;20196;-80
2021/01/10 02:17:28;;;;;;;2.67;1.20;;;2.10;99.90;;;;;;4849502;29;20250;-79
2021/01/10 02:20:12;;;;;;;1.03;0.83;;;2.10;99.90;;;;;;4837427;29;20287;-79
2021/01/10 02:22:52;;;;;;;1.63;1.53;;;2.20;99.90;;;;;;4831492;29;20228;-79
2021/01/10 02:25:18;;;;;;;1.57;1.20;;;2.20;99.90;;;;;;4827996;29;20293;-80
2021/01/10 02:27:44;;;;;;;0.73;0.73;;;2.20;99.90;;;;;;4844251;29;20609;-80
2021/01/10 02:30:12;;;;;;;1.23;1.13;;;2.20;99.90;;;;;;4841196;29;20335;-81
2021/01/10 02:32:41;;;;;;;1.67;1.57;;;2.30;99.90;;;;;;4848909;29;20206;-80
2021/01/10 02:35:08;;;;;;;2.10;1.10;;;2.30;99.90;;;;;;4830649;29;20220;-79
2021/01/10 02:38:02;;;;;;;1.70;1.23;;;2.30;99.90;;;;;;4833263;29;20233;-79
2021/01/10 02:40:55;;;;;;;1.33;1.33;;;2.30;99.90;;;;;;4845435;29;20308;-80
2021/01/10 02:43:25;;;;;;;0.77;0.77;;;2.30;99.90;;;;;;4846577;29;20235;-79
2021/01/10 02:45:56;;;;;;;0.30;0.30;;;2.30;99.90;;;;;;4827706;29;20446;-81
2021/01/10 02:48:22;;;;;;;3.07;1.73;;;2.30;99.90;;;;;;4842036;29;20227;-79
2021/01/10 02:50:48;;;;;;;1.07;1.07;;;2.30;99.90;;;;;;4820226;29;20205;-79
2021/01/10 02:53:13;;;;;;;0.53;0.53;;;2.30;99.90;;;;;;4849678;29;21388;-79
2021/01/10 02:55:39;;;;;;;2.73;2.27;;;2.30;99.90;;;;;;4828480;29;20240;-79
2021/01/10 02:58:11;;;;;;;1.53;1.43;;;2.20;99.90;;;;;;4829665;29;20300;-80
2021/01/10 03:00:39;;;;;;;3.50;1.50;;;2.20;99.90;;;;;;4842433;29;20255;-81
2021/01/10 03:03:06;;;;;;;4.23;1.80;;;2.20;99.90;;;;;;4827770;29;20269;-78
2021/01/10 03:05:33;;;;;;;1.07;0.83;;;2.20;99.90;;;;;;4846295;29;20208;-79
2021/01/10 03:07:59;;;;;;;1.03;1.03;;;2.30;99.90;;;;;;4828696;29;20221;-78
2021/01/10 03:10:25;;;;;;;2.00;0.70;;;2.30;99.90;;;;;;4829473;29;20339;-80
2021/01/10 03:12:51;;;;;;;4.53;1.97;;;2.40;99.90;;;;;;4810985;29;20805;-80
2021/01/10 03:15:17;;;;;;;1.20;1.20;;;2.40;99.90;;;;;;4814237;29;20714;-80
2021/01/10 03:17:44;;;;;;;1.77;1.67;;;2.50;99.90;;;;;;4828003;29;20204;-80
2021/01/10 03:20:15;;;;;;;4.60;1.87;;;2.50;99.90;;;;;;4843734;29;20227;-80
2021/01/10 03:22:42;;;;;;;0.90;0.90;;;2.60;99.90;;;;;;4845437;29;20320;-81
2021/01/10 03:25:09;;;;;;;0.60;0.53;;;2.70;99.90;;;;;;4828477;29;20227;-79
2021/01/10 03:27:35;;;;;;;10.93;1.57;;;2.70;99.90;;;;;;4811223;29;20252;-78
2021/01/10 03:30:07;;;;;;;1.57;1.47;;;2.80;99.90;;;;;;4833749;29;20308;-80
2021/01/10 03:32:33;;;;;;;1.00;0.93;;;2.80;99.90;;;;;;4835238;29;20323;-79
2021/01/10 03:34:59;;;;;;;1.63;1.53;;;2.80;99.90;;;;;;4816827;29;20895;-80
2021/01/10 03:37:25;;;;;;;3.50;3.30;;;2.90;99.90;;;;;;4846875;29;20232;-79
2021/01/10 03:39:51;;;;;;;1.73;1.63;;;2.90;99.90;;;;;;4816863;29;20969;-80
2021/01/10 03:42:16;;;;;;;3.27;2.33;;;3.00;99.90;;;;;;4818830;29;20641;-79
2021/01/10 03:44:42;;;;;;;2.23;1.47;;;3.00;99.90;;;;;;4827127;29;20658;-79
2021/01/10 03:47:08;;;;;;;0.80;0.80;;;3.00;99.90;;;;;;4825744;29;21949;-79
2021/01/10 03:49:33;;;;;;;1.20;1.17;;;3.00;99.90;;;;;;4841763;29;20608;-80
2021/01/10 03:51:59;;;;;;;1.13;1.03;;;3.00;99.90;;;;;;4831513;29;20224;-80
2021/01/10 03:54:25;;;;;;;1.70;1.60;;;3.00;99.90;;;;;;4832981;29;20973;-79
2021/01/10 03:56:51;;;;;;;1.17;1.17;;;2.90;99.90;;;;;;4837169;29;21082;-79
2021/01/10 03:59:17;;;;;;;1.23;1.13;;;2.90;99.90;;;;;;4849740;29;20204;-80
2021/01/10 04:01:42;;;;;;;0.40;0.40;;;2.90;99.90;;;;;;4840632;29;20531;-79
2021/01/10 04:04:08;;;;;;;1.20;1.17;;;2.90;99.90;;;;;;4816827;29;20224;-79
2021/01/10 04:06:34;;;;;;;2.07;1.47;;;2.90;99.90;;;;;;4831305;29;20224;-79
2021/01/10 04:09:00;;;;;;;0.83;0.83;;;2.80;99.90;;;;;;4829727;29;20713;-79
2021/01/10 04:11:25;;;;;;;0.97;0.93;;;2.80;99.90;;;;;;4817978;29;20220;-80
2021/01/10 04:13:51;;;;;;;2.07;1.97;;;2.80;99.90;;;;;;4849220;29;20240;-81
2021/01/10 04:16:17;;;;;;;0.53;0.53;;;2.80;99.90;;;;;;4830048;29;20297;-79
2021/01/10 04:18:43;;;;;;;2.40;0.50;;;2.80;99.90;;;;;;4830807;29;20722;-78
2021/01/10 04:21:08;;;;;;;0.40;0.40;;;2.70;99.90;;;;;;4830764;29;20225;-80
2021/01/10 04:23:34;;;;;;;0.93;0.87;;;2.70;99.90;;;;;;4817275;29;20651;-79
2021/01/10 04:26:01;;;;;;;1.13;0.70;;;2.60;99.90;;;;;;4843061;29;20229;-81
2021/01/10 04:28:27;;;;;;;2.77;1.20;;;2.60;99.90;;;;;;4835844;29;20216;-81
2021/01/10 04:30:53;;;;;;;2.40;1.43;;;2.60;99.90;;;;;;4813819;29;20751;-79
2021/01/10 04:33:18;;;;;;;0.97;0.83;;;2.50;99.90;;;;;;4833310;29;20705;-79
2021/01/10 04:35:44;;;;;;;1.90;1.33;;;2.40;99.90;;;;;;4818254;29;20591;-78
2021/01/10 04:38:10;;;;;;;1.40;1.23;;;2.40;99.90;;;;;;4814328;29;20201;-79
2021/01/10 04:40:36;;;;;;;0.83;0.70;;;2.30;99.90;;;;;;4846551;29;20349;-79
2021/01/10 04:43:01;;;;;;;2.33;1.33;;;2.20;99.90;;;;;;4828900;29;20251;-79
2021/01/10 04:45:28;;;;;;;0.57;0.57;;;2.20;99.90;;;;;;4821251;29;21025;-79
2021/01/10 04:47:55;;;;;;;1.47;1.23;;;2.10;99.90;;;;;;4831904;29;20210;-79
2021/01/10 04:50:22;;;;;;;0.80;0.80;;;2.00;99.90;;;;;;4850911;29;20227;-79
2021/01/10 04:52:52;;;;;;;1.53;1.43;;;2.00;99.90;;;;;;4847412;29;20228;-79
2021/01/10 04:55:20;;;;;;;1.23;1.23;;;2.00;99.90;;;;;;4833688;29;20224;-78
2021/01/10 04:57:49;;;;;;;6.80;1.43;;;2.00;99.90;;;;;;4830152;29;20400;-80
2021/01/10 05:00:17;;;;;;;1.20;0.97;;;2.00;99.90;;;;;;4845773;29;20224;-79
2021/01/10 05:02:53;;;;;;;0.57;0.57;;;2.00;99.90;;;;;;4831862;29;20208;-80
2021/01/10 05:05:19;;;;;;;0.90;0.90;;;2.00;99.90;;;;;;4847617;29;20210;-79
2021/01/10 05:07:45;;;;;;;1.20;0.93;;;1.90;99.90;;;;;;4811041;29;20229;-79
2021/01/10 05:10:11;;;;;;;0.60;0.60;;;1.90;99.90;;;;;;4827880;29;20236;-79
2021/01/10 05:12:37;;;;;;;0.57;0.57;;;1.80;99.90;;;;;;4846591;29;20232;-80
2021/01/10 05:15:03;;;;;;;1.40;1.30;;;1.80;99.90;;;;;;4816480;29;20231;-82
2021/01/10 05:17:32;;;;;;;0.70;0.70;;;1.70;99.90;;;;;;4850675;29;20207;-80
2021/01/10 05:19:58;;;;;;;1.60;0.97;;;1.70;99.90;;;;;;4841119;29;20283;-78
2021/01/10 05:22:24;;;;;;;1.10;1.10;;;1.70;99.90;;;;;;4853035;29;20232;-79
2021/01/10 05:24:49;;;;;;;1.23;0.77;;;1.70;99.90;;;;;;4834029;29;20235;-80
2021/01/10 05:27:15;;;;;;;1.17;1.17;;;1.60;99.90;;;;;;4817662;29;20228;-79
2021/01/10 05:29:46;;;;;;;0.93;0.93;;;1.60;99.90;;;;;;4851200;29;21232;-80
2021/01/10 05:32:12;;;;;;;0.40;0.40;;;1.60;99.90;;;;;;4849000;29;20264;-79
2021/01/10 05:34:37;;;;;;;1.80;1.23;;;1.60;99.90;;;;;;4828827;29;20896;-79
2021/01/10 05:37:14;;;;;;;0.40;0.40;;;1.60;99.90;;;;;;4819671;29;21117;-79
2021/01/10 05:39:44;;;;;;;1.27;1.17;;;1.50;99.90;;;;;;4851417;29;20235;-80
2021/01/10 05:42:12;;;;;;;1.40;1.30;;;1.50;99.90;;;;;;4847773;29;20268;-79
2021/01/10 05:44:43;;;;;;;1.23;1.20;;;1.50;99.90;;;;;;4812815;29;20211;-79
2021/01/10 05:47:14;;;;;;;0.87;0.87;;;1.40;99.90;;;;;;4843327;29;20351;-79
2021/01/10 05:49:54;;;;;;;1.67;1.03;;;1.50;99.90;;;;;;4846141;29;20348;-79
2021/01/10 05:52:21;;;;;;;0.57;0.57;;;1.40;99.90;;;;;;4832418;29;20601;-79
2021/01/10 05:54:55;;;;;;;0.83;0.83;;;1.50;99.90;;;;;;4841049;29;20248;-80
2021/01/10 05:57:30;;;;;;;0.70;0.70;;;1.50;99.90;;;;;;4839798;29;20223;-80
2021/01/10 05:59:56;;;;;;;0.60;0.60;;;1.50;99.90;;;;;;4831146;29;20847;-80
2021/01/10 06:02:36;;;;;;;1.00;0.83;;;1.50;99.90;;;;;;4829686;29;20277;-78
2021/01/10 06:05:16;;;;;;;1.40;1.00;;;1.50;99.90;;;;;;4827038;29;20228;-79
2021/01/10 06:07:43;;;;;;;1.63;1.53;;;1.50;99.90;;;;;;4815549;29;20319;-80
2021/01/10 06:10:09;;;;;;;1.43;1.33;;;1.50;99.90;;;;;;4831489;29;20310;-79
2021/01/10 06:12:36;;;;;;;1.90;1.47;;;1.50;99.90;;;;;;4813171;29;20371;-78
2021/01/10 06:15:16;;;;;;;0.40;0.40;;;1.60;99.90;;;;;;4850249;29;20236;-79
2021/01/10 06:17:49;;;;;;;1.73;1.63;;;1.60;99.90;;;;;;4846286;29;20230;-79
2021/01/10 06:20:26;;;;;;;0.80;0.77;;;1.60;99.90;;;;;;4849961;29;20192;-79
2021/01/10 06:22:55;;;;;;;0.87;0.80;;;1.60;99.90;;;;;;4846397;29;20231;-78
2021/01/10 06:25:22;;;;;;;0.63;0.63;;;1.70;99.90;;;;;;4847848;29;20216;-80
2021/01/10 06:28:03;;;;;;;0.40;0.40;;;1.70;99.90;;;;;;4847338;29;20220;-79
2021/01/10 06:30:32;;;;;;;2.50;2.30;;;1.70;99.90;;;;;;4847682;29;20311;-80
2021/01/10 06:33:03;;;;;;;4.00;2.37;;;1.80;99.90;;;;;;4835276;29;21083;-81
2021/01/10 06:35:38;;;;;;;0.97;0.77;;;1.80;99.90;;;;;;4835019;29;20204;-78
2021/01/10 06:38:11;;;;;;;0.63;0.63;;;1.80;99.90;;;;;;4847351;29;20227;-79
2021/01/10 06:40:39;;;;;;;0.90;0.90;;;1.80;99.90;;;;;;4832946;29;20811;-78
2021/01/10 06:43:08;;;;;;;1.53;1.43;;;1.80;99.90;;;;;;4845880;29;20312;-79
2021/01/10 06:46:00;;;;;;;1.47;0.90;;;1.80;99.90;;;;;;4819765;29;20224;-78
2021/01/10 06:48:26;;;;;;;0.60;0.60;;;1.80;99.90;;;;;;4830111;29;20228;-79
2021/01/10 06:50:55;;;;;;;1.10;1.03;;;1.80;99.90;;;;;;4836910;29;20257;-79
2021/01/10 06:53:20;;;;;;;1.20;1.20;;;1.80;99.90;;;;;;4827628;29;20212;-80
2021/01/10 06:55:46;;;;;;;0.90;0.90;;;1.90;99.90;;;;;;4811304;29;20220;-80
2021/01/10 06:58:12;;;;;;;2.00;1.03;;;1.90;99.90;;;;;;4813464;29;21519;-80
2021/01/10 07:00:51;;;;;;;1.73;1.63;;;1.90;99.90;;;;;;4815815;29;21407;-79
2021/01/10 07:03:16;;;;;;;0.60;0.60;;;1.90;99.90;;;;;;4844012;29;20263;-79
2021/01/10 07:06:13;;;;;;;2.27;2.17;;;1.80;99.90;;;;;;4812960;29;21508;-79
2021/01/10 07:08:38;;;;;;;1.20;1.20;;;1.80;99.90;;;;;;4847730;29;20208;-80
2021/01/10 07:11:23;;;;;;;1.57;1.47;;;1.80;99.90;;;;;;4850413;29;21239;-79
2021/01/10 07:14:00;;;;;;;1.57;1.47;;;1.80;99.90;;;;;;4843804;29;21234;-80
2021/01/10 07:16:27;;;;;;;1.70;1.60;;;1.80;99.90;;;;;;4844926;29;21124;-81
2021/01/10 07:18:57;;;;;;;9.33;1.60;;;1.80;99.90;;;;;;4852864;29;20239;-81
2021/01/10 07:21:34;;;;;;;1.67;1.60;;;1.80;99.90;;;;;;4843135;29;20224;-79
2021/01/10 07:24:20;;;;;;;0.83;0.80;;;1.90;99.90;;;;;;4831233;29;20228;-81
2021/01/10 07:26:59;;;;;;;0.60;0.60;;;1.90;99.90;;;;;;4847249;29;20234;-79
2021/01/10 07:29:38;;;;;;;2.17;2.07;;;1.90;99.90;;;;;;4827197;29;20335;-80
2021/01/10 07:32:23;;;;;;;2.37;2.27;;;1.90;99.90;;;;;;4834574;29;20268;-78
2021/01/10 07:34:49;;;;;;;2.63;2.13;;;1.90;99.90;;;;;;4843317;29;20299;-80
2021/01/10 07:37:15;;;;;;;1.63;1.43;;;2.00;99.90;;;;;;4826890;29;20232;-78
2021/01/10 07:39:52;;;;;;;3.97;2.30;;;2.10;99.90;;;;;;4842740;29;20515;-79
2021/01/10 07:42:20;;;;;;;2.27;2.13;;;2.20;99.90;;;;;;4843142;29;20815;-80
2021/01/10 07:44:54;;;;;;;4.17;1.87;;;2.30;99.90;;;;;;4846819;29;20232;-80
2021/01/10 07:47:29;;;;;;;3.80;1.80;;;2.40;99.90;;;;;;4832629;29;20345;-78
2021/01/10 07:49:57;;;;;;;4.77;2.37;;;2.40;99.90;;;;;;4828535;29;20241;-79
2021/01/10 07:52:45;;;;;;;2.27;1.63;;;2.50;99.90;;;;;;4826039;29;20311;-78
2021/01/10 07:55:19;;;;;;;3.20;1.63;;;2.50;99.90;;;;;;4845822;29;20593;-80
2021/01/10 07:57:54;;;;;;;2.20;1.93;;;2.50;99.90;;;;;;4848455;29;20231;-81
2021/01/10 08:00:35;;;;;;;2.77;2.33;;;2.60;99.90;;;;;;4827746;29;20263;-79
2021/01/10 08:03:08;;;;;;;5.70;5.30;;;2.70;99.90;;;;;;4846460;29;20223;-80
2021/01/10 08:05:35;;;;;;;5.47;3.47;;;2.80;99.90;;;;;;4853171;29;20199;-81
2021/01/10 08:08:01;;;;;;;5.33;4.87;;;3.00;99.90;;;;;;4842467;29;20236;-80
2021/01/10 08:10:46;;;;;;;5.00;4.60;;;3.30;99.90;;;;;;4847112;29;20240;-79
2021/01/10 08:13:40;;;;;;;4.43;3.50;;;3.60;99.90;;;;;;4830123;29;20224;-81
2021/01/10 08:16:14;;;;;;;26.00;4.33;;;3.70;99.90;;;;;;4841403;29;20223;-79
2021/01/10 08:18:44;;;;;;;7.27;5.97;;;3.50;99.90;;;;;;4845230;29;20227;-80
2021/01/10 08:21:11;;;;;;;10.43;4.93;;;3.30;99.90;;;;;;4828033;29;20259;-81
2021/01/10 08:23:38;;;;;;;7.67;5.67;;;3.20;99.90;;;;;;4830119;29;20196;-81
2021/01/10 08:26:05;;;;;;;5.53;5.03;;;3.10;99.90;;;;;;4845710;29;20259;-80
2021/01/10 08:29:06;;;;;;;8.97;4.00;;;3.10;99.90;;;;;;4845431;29;20228;-79
2021/01/10 08:31:33;;;;;;;2.73;1.90;;;3.00;99.90;;;;;;4831195;29;20263;-81
2021/01/10 08:34:04;;;;;;;4.97;3.53;;;3.00;99.90;;;;;;4814596;29;20695;-80
2021/01/10 08:36:31;;;;;;;2.77;2.10;;;3.00;99.90;;;;;;4843122;29;20302;-82
2021/01/10 08:39:18;;;;;;;4.13;3.17;;;3.00;99.90;;;;;;4830924;29;20710;-81
2021/01/10 08:41:47;;;;;;;3.13;2.83;;;3.10;99.90;;;;;;4841531;29;20240;-82
2021/01/10 08:44:16;;;;;;;9.40;3.97;;;3.00;99.90;;;;;;4849126;29;20284;-80
2021/01/10 08:46:50;;;;;;;4.70;4.10;;;3.10;99.90;;;;;;4836285;29;20235;-79
2021/01/10 08:49:20;;;;;;;5.60;2.90;;;3.10;99.90;;;;;;4852363;29;20228;-80
2021/01/10 08:51:49;;;;;;;4.23;2.93;;;3.20;99.90;;;;;;4853005;29;20237;-81
2021/01/10 08:54:17;;;;;;;2.73;2.50;;;3.30;99.90;;;;;;4848263;29;20284;-80
2021/01/10 08:56:45;;;;;;;5.40;4.00;;;3.20;99.90;;;;;;4828804;29;20227;-80
2021/01/10 08:59:11;;;;;;;7.37;4.07;;;3.30;99.90;;;;;;4842565;29;20199;-81
2021/01/10 09:01:38;;;;;;;7.47;4.47;;;3.30;99.90;;;;;;4842882;29;20239;-79
2021/01/10 09:04:09;;;;;;;3.97;2.03;;;3.30;99.90;;;;;;4835708;29;20220;-79
2021/01/10 09:06:34;;;;;;;5.10;4.57;;;3.30;99.90;;;;;;4830763;29;20216;-79
2021/01/10 09:09:07;;;;;;;7.97;7.30;;;3.40;99.90;;;;;;4844263;29;20248;-79
2021/01/10 09:11:36;;;;;;;3.63;3.03;;;3.40;99.90;;;;;;4848391;29;20197;-79
2021/01/10 09:14:06;;;;;;;3.83;3.50;;;3.40;99.90;;;;;;4845209;29;20229;-80
2021/01/10 09:16:36;;;;;;;6.83;3.57;;;3.50;99.90;;;;;;4844236;29;20221;-79
2021/01/10 09:19:02;;;;;;;4.27;3.87;;;3.50;99.90;;;;;;4846805;29;20292;-79
2021/01/10 09:21:29;;;;;;;3.90;3.57;;;3.60;99.90;;;;;;4829309;29;20228;-80
2021/01/10 09:23:56;;;;;;;5.47;4.87;;;3.60;99.90;;;;;;4830364;29;20730;-81
2021/01/10 09:26:34;;;;;;;8.73;4.30;;;3.60;99.90;;;;;;4844806;29;20280;-80
2021/01/10 09:29:01;;;;;;;4.50;4.03;;;3.60;99.90;;;;;;4829218;29;20227;-80
2021/01/10 09:31:56;;;;;;;6.37;3.87;;;3.60;99.90;;;;;;4846161;29;20224;-80
2021/01/10 09:34:25;;;;;;;9.57;6.60;;;3.60;99.90;;;;;;4820907;29;20232;-80
2021/01/10 09:37:01;;;;;;;4.63;4.33;;;3.60;99.90;;;;;;4826467;29;20224;-80
2021/01/10 09:39:43;;;;;;;3.63;3.33;;;3.60;99.90;;;;;;4845647;29;20303;-80
2021/01/10 09:42:10;;;;;;;5.20;4.70;;;3.60;99.90;;;;;;4838945;29;20774;-79
2021/01/10 09:44:36;;;;;;;4.90;4.40;;;3.60;99.90;;;;;;4829551;29;20208;-79
2021/01/10 09:47:03;;;;;;;3.17;2.97;;;3.60;99.90;;;;;;4843013;29;20256;-80
2021/01/10 09:49:34;;;;;;;6.10;4.37;;;3.60;99.90;;;;;;4826190;29;20245;-79
2021/01/10 09:52:10;;;;;;;9.93;3.87;;;3.60;99.90;;;;;;4828037;29;20232;-80
2021/01/10 09:54:36;;;;;;;2.67;2.43;;;3.60;99.90;;;;;;4828933;29;20395;-81
2021/01/10 09:57:16;;;;;;;6.73;5.07;;;3.70;99.90;;;;;;4843241;29;20233;-80
2021/01/10 09:59:46;;;;;;;4.20;3.17;;;3.80;99.90;;;;;;4825387;29;20997;-79
2021/01/10 10:02:14;;;;;;;6.20;3.97;;;3.80;99.90;;;;;;4827439;29;20228;-80
2021/01/10 10:04:44;;;;;;;3.30;3.00;;;3.80;99.90;;;;;;4850199;29;20702;-80
2021/01/10 10:07:10;;;;;;;6.03;3.63;;;3.90;99.90;;;;;;4843149;29;20746;-80
2021/01/10 10:09:48;;;;;;;6.47;4.00;;;3.90;99.90;;;;;;4812933;29;20275;-80
2021/01/10 10:12:15;;;;;;;6.20;3.73;;;4.00;99.90;;;;;;4844569;29;20328;-80
2021/01/10 10:14:52;;;;;;;7.23;5.60;;;4.10;99.90;;;;;;4828542;29;20208;-81
2021/01/10 10:17:20;;;;;;;12.00;4.40;;;4.10;99.90;;;;;;4828072;29;20212;-80
2021/01/10 10:19:46;;;;;;;4.07;3.07;;;4.20;99.90;;;;;;4847009;29;20323;-79
2021/01/10 10:22:22;;;;;;;7.60;4.33;;;4.20;99.90;;;;;;4814270;29;20232;-80
2021/01/10 10:24:48;;;;;;;6.47;5.80;;;4.30;99.90;;;;;;4826026;29;20259;-79
2021/01/10 10:27:14;;;;;;;6.27;3.90;;;4.30;99.90;;;;;;4827580;29;20363;-79
2021/01/10 10:29:39;;;;;;;13.97;4.33;;;4.30;99.90;;;;;;4826003;29;20346;-80
2021/01/10 10:32:05;;;;;;;6.93;6.33;;;4.30;99.90;;;;;;4834576;29;20204;-80
2021/01/10 10:34:31;;;;;;;5.73;5.17;;;4.30;99.90;;;;;;4809196;29;20224;-79
2021/01/10 10:37:00;;;;;;;5.53;4.40;;;4.30;99.90;;;;;;4843043;29;20244;-80
2021/01/10 10:39:26;;;;;;;4.37;3.47;;;4.40;99.90;;;;;;4826048;29;20342;-80
2021/01/10 10:41:52;;;;;;;2.87;2.17;;;4.40;99.90;;;;;;4825195;29;20199;-80
2021/01/10 10:44:18;;;;;;;10.50;4.80;;;4.40;99.90;;;;;;4818994;29;20209;-80
2021/01/10 10:46:45;;;;;;;5.13;4.30;;;4.50;99.90;;;;;;4801142;29;20259;-81
2021/01/10 10:49:10;;;;;;;6.40;4.37;;;4.50;99.90;;;;;;4812745;29;20236;-80
2021/01/10 10:51:36;;;;;;;5.67;4.93;;;4.50;99.90;;;;;;4811170;29;20255;-80
2021/01/10 10:54:02;;;;;;;11.13;4.97;;;4.50;99.90;;;;;;4812938;29;20646;-80
2021/01/10 10:56:40;;;;;;;8.13;5.37;;;4.50;99.90;;;;;;4836887;29;20203;-80
2021/01/10 10:59:06;;;;;;;6.83;3.93;;;4.50;99.90;;;;;;4836003;29;20725;-80
2021/01/10 11:01:40;;;;;;;5.23;4.73;;;4.50;99.90;;;;;;4826626;29;20284;-80
2021/01/10 11:04:06;;;;;;;5.50;5.13;;;4.50;99.90;;;;;;4843643;29;20307;-81
2021/01/10 11:06:32;;;;;;;5.30;3.30;;;4.60;99.90;;;;;;4811466;29;20898;-80
2021/01/10 11:08:58;;;;;;;3.73;3.17;;;4.60;99.90;;;;;;4823891;29;20193;-80
2021/01/10 11:11:33;;;;;;;8.03;4.80;;;4.60;99.90;;;;;;4842735;29;20204;-79
2021/01/10 11:13:59;;;;;;;8.77;4.07;;;4.60;99.90;;;;;;4819978;29;20346;-81
2021/01/10 11:16:32;;;;;;;6.63;5.00;;;4.70;99.90;;;;;;4829251;29;20200;-79
2021/01/10 11:18:59;;;;;;;5.60;4.93;;;4.70;99.90;;;;;;4827247;29;20251;-80
2021/01/10 11:21:33;;;;;;;7.83;5.03;;;4.70;99.90;;;;;;4847413;29;20209;-79
2021/01/10 11:23:59;;;;;;;6.17;5.07;;;4.80;99.90;;;;;;4822919;29;20228;-80
2021/01/10 11:26:25;;;;;;;9.50;5.20;;;4.90;99.90;;;;;;4815267;29;20335;-80
2021/01/10 11:28:51;;;;;;;6.87;5.43;;;5.10;99.90;;;;;;4825800;29;20216;-80
2021/01/10 11:31:18;;;;;;;9.07;4.97;;;5.20;99.90;;;;;;4843202;29;20279;-81
2021/01/10 11:33:44;;;;;;;8.93;5.80;;;5.10;99.90;;;;;;4816145;29;20228;-80
2021/01/10 11:36:11;;;;;;;7.93;4.80;;;5.10;99.90;;;;;;4844468;29;20247;-80
2021/01/10 11:38:37;;;;;;;8.90;5.50;;;5.00;99.90;;;;;;4845651;29;20284;-80
2021/01/10 11:41:10;;;;;;;5.23;3.40;;;4.90;99.90;;;;;;4818164;29;20669;-79
2021/01/10 11:43:37;;;;;;;13.77;4.67;;;4.80;99.90;;;;;;4846058;29;20634;-79
2021/01/10 11:46:04;;;;;;;11.17;5.00;;;4.80;99.90;;;;;;4826696;29;20287;-80
2021/01/10 11:48:30;;;;;;;11.00;6.23;;;4.80;99.90;;;;;;4842012;29;20582;-80
2021/01/10 11:50:57;;;;;;;9.13;5.73;;;4.80;99.90;;;;;;4812544;29;21284;-80
2021/01/10 11:53:23;;;;;;;9.17;7.30;;;4.80;99.90;;;;;;4813285;29;20240;-80
2021/01/10 11:55:48;;;;;;;7.87;4.80;;;4.80;99.90;;;;;;4845403;29;20200;-80
2021/01/10 11:58:14;;;;;;;8.73;6.00;;;4.70;99.90;;;;;;4830669;29;20260;-80
2021/01/10 12:00:40;;;;;;;5.07;3.07;;;4.70;99.90;;;;;;4844704;29;20586;-79
2021/01/10 12:03:05;;;;;;;14.83;8.70;;;4.70;99.90;;;;;;4842740;29;20231;-80
2021/01/10 12:05:32;;;;;;;10.90;7.53;;;4.70;99.90;;;;;;4825826;29;20319;-81
2021/01/10 12:07:59;;;;;;;6.77;6.10;;;4.80;99.90;;;;;;4825612;29;21024;-78
2021/01/10 12:10:26;;;;;;;4.87;3.73;;;4.70;99.90;;;;;;4832937;29;20238;-79
2021/01/10 12:12:55;;;;;;;11.10;6.47;;;4.70;99.90;;;;;;4821994;29;20597;-81
2021/01/10 12:15:22;;;;;;;11.73;6.37;;;4.70;99.90;;;;;;4798952;29;20719;-78
2021/01/10 12:17:47;;;;;;;20.20;7.30;;;4.70;99.90;;;;;;4828009;29;20786;-81
2021/01/10 12:20:14;;;;;;;7.33;6.23;;;4.70;99.90;;;;;;4833648;29;20247;-80
2021/01/10 12:22:39;;;;;;;8.87;5.63;;;4.70;99.90;;;;;;4817913;29;20785;-86
2021/01/10 12:25:06;;;;;;;8.87;6.30;;;4.80;99.90;;;;;;4843256;29;20232;-91
2021/01/10 12:27:32;;;;;;;11.53;6.10;;;4.80;99.90;;;;;;4829140;29;20203;-91
2021/01/10 12:29:57;;;;;;;8.17;3.63;;;4.70;99.90;;;;;;4840459;29;20236;-92
2021/01/10 12:32:24;;;;;;;9.67;6.20;;;4.70;99.90;;;;;;4821816;29;20227;-90
2021/01/10 12:34:49;;;;;;;6.20;3.10;;;4.70;99.90;;;;;;4860451;29;20233;-92
2021/01/10 12:37:19;;;;;;;7.80;5.53;;;4.70;99.90;;;;;;4829829;29;21184;-93
2021/01/10 12:39:44;;;;;;;10.70;6.97;;;4.70;99.90;;;;;;4831394;29;20240;-92
2021/01/10 12:42:17;;;;;;;7.30;5.97;;;4.80;99.90;;;;;;4814369;29;20212;-92
2021/01/10 12:44:46;;;;;;;13.47;5.70;;;4.70;99.90;;;;;;4861137;29;20212;-91
2021/01/10 12:47:12;;;;;;;11.00;5.93;;;4.70;99.90;;;;;;4840433;29;21798;-92
2021/01/10 12:49:37;;;;;;;8.67;6.93;;;4.70;99.90;;;;;;4842322;29;20232;-92
2021/01/10 12:52:06;;;;;;;8.67;4.87;;;4.70;99.90;;;;;;4832787;29;20227;-93
2021/01/10 12:54:33;;;;;;;12.10;5.87;;;4.70;99.90;;;;;;4859293;29;20560;-92
2021/01/10 12:56:59;;;;;;;8.23;5.97;;;4.70;99.90;;;;;;4826647;29;20220;-92
2021/01/10 12:59:24;;;;;;;12.47;7.87;;;4.70;99.90;;;;;;4828113;29;20228;-92
2021/01/10 13:01:50;;;;;;;4.03;3.30;;;4.70;99.90;;;;;;4828973;29;20228;-92
2021/01/10 13:04:16;;;;;;;14.37;6.00;;;4.70;99.90;;;;;;4827067;29;20283;-94
2021/01/10 13:06:42;;;;;;;8.60;5.27;;;4.60;99.90;;;;;;4858783;29;20685;-93